Time;durP1;ratioP1;P1;durP2;ratioP2;P2;SDS_P1;SDS_P2;PMS_P1;PMS_P2;Temp;Humidity;BMP_temperature;BMP_pressure;BME280_temperature;BME280_humidity;BME280_pressure;Samples;Min_cycle;Max_cycle;Signal;HPM_P1;HPM_P2
2022/04/06 00:01:27;;;;;;;45.55;22.73;;;;;;;;;;4978172;28;20105;-85
2022/04/06 00:03:54;;;;;;;48.25;21.98;;;;;;;;;;4996135;28;20055;-85
2022/04/06 00:06:21;;;;;;;44.45;21.42;;;;;;;;;;4962259;28;20561;-85
2022/04/06 00:08:47;;;;;;;47.00;20.92;;;;;;;;;;4962276;28;20055;-86
2022/04/06 00:11:13;;;;;;;45.13;22.35;;;;;;;;;;4978454;28;20058;-85
2022/04/06 00:13:39;;;;;;;49.70;21.38;;;;;;;;;;4978411;28;20069;-85
2022/04/06 00:16:04;;;;;;;45.67;20.42;;;9.00;99.90;;;;;;4978087;28;20046;-85
2022/04/06 00:18:30;;;;;;;49.92;21.63;;;;;;;;;;4996072;28;20409;-85
2022/04/06 00:20:56;;;;;;;44.97;20.02;;;;;;;;;;4977977;28;20055;-85
2022/04/06 00:23:22;;;;;;;47.28;20.08;;;;;;;;;;4977982;28;20463;-85
2022/04/06 00:25:48;;;;;;;43.25;19.70;;;;;;;;;;4978318;28;20056;-85
2022/04/06 00:28:14;;;;;;;43.50;20.35;;;;;;;;;;4995568;28;20085;-85
2022/04/06 00:30:40;;;;;;;47.08;19.90;;;;;;;;;;4962018;28;20069;-85
2022/04/06 00:33:06;;;;;;;46.42;19.98;;;;;;;;;;4961667;28;20138;-85
2022/04/06 00:35:32;;;;;;;45.17;20.00;;;;;;;;;;4962073;28;20486;-85
2022/04/06 00:38:03;;;;;;;46.08;20.48;;;8.90;99.90;;;;;;4995397;28;20089;-85
2022/04/06 00:40:30;;;;;;;46.00;19.70;;;8.90;99.90;;;;;;4977483;28;20050;-85
2022/04/06 00:42:56;;;;;;;45.65;20.65;;;;;;;;;;4995293;28;20154;-85
2022/04/06 00:45:23;;;;;;;47.38;19.60;;;8.80;99.90;;;;;;4995322;28;20426;-85
2022/04/06 00:47:50;;;;;;;42.67;19.02;;;;;;;;;;4977602;28;20057;-86
2022/04/06 00:50:17;;;;;;;42.85;19.48;;;;;;;;;;4995147;28;20107;-85
2022/04/06 00:52:43;;;;;;;41.40;19.85;;;9.10;99.90;;;;;;4977739;28;20050;-85
2022/04/06 00:55:11;;;;;;;43.10;19.55;;;8.90;99.90;;;;;;4977589;28;20536;-85
2022/04/06 00:57:39;;;;;;;45.28;19.48;;;8.90;99.90;;;;;;4995025;28;20129;-85
2022/04/06 01:00:08;;;;;;;44.60;19.65;;;9.00;99.90;;;;;;4973572;28;20461;-85
2022/04/06 01:02:34;;;;;;;43.67;18.38;;;;;;;;;;4968540;28;20505;-85
2022/04/06 01:05:00;;;;;;;40.70;18.20;;;;;;;;;;4977276;28;20054;-85
2022/04/06 01:07:26;;;;;;;43.92;17.88;;;;;;;;;;4975545;28;20196;-85
2022/04/06 01:09:53;;;;;;;44.67;17.35;;;;;;;;;;4977396;28;20150;-86
2022/04/06 01:12:21;;;;;;;46.97;18.00;;;8.80;99.90;;;;;;4977379;28;20058;-85
2022/04/06 01:14:47;;;;;;;37.00;16.75;;;;;;;;;;4993640;28;20054;-85
2022/04/06 01:17:12;;;;;;;40.55;17.73;;;8.90;99.90;;;;;;4994803;28;20042;-85
2022/04/06 01:19:51;;;;;;;45.90;17.00;;;8.80;99.90;;;;;;4994636;28;20056;-85
2022/04/06 01:22:18;;;;;;;38.58;16.55;;;8.80;99.90;;;;;;4993702;28;20054;-86
2022/04/06 01:24:45;;;;;;;38.20;16.50;;;8.80;99.90;;;;;;4961280;28;20054;-85
2022/04/06 01:27:12;;;;;;;41.42;16.08;;;;;;;;;;4994197;28;20494;-85
2022/04/06 01:29:38;;;;;;;42.03;16.10;;;;;;;;;;4994267;28;20054;-85
2022/04/06 01:32:11;;;;;;;35.47;15.98;;;8.90;99.90;;;;;;4976996;28;20513;-85
2022/04/06 01:34:38;;;;;;;40.67;15.82;;;;;;;;;;4960777;28;20085;-86
2022/04/06 01:37:08;;;;;;;39.33;15.35;;;8.30;99.90;;;;;;4994503;28;20116;-85
2022/04/06 01:39:34;;;;;;;37.80;15.95;;;;;;;;;;4994225;28;20117;-85
2022/04/06 01:42:01;;;;;;;42.63;15.15;;;;;;;;;;4977094;28;20062;-85
2022/04/06 01:44:28;;;;;;;43.38;15.73;;;;;;;;;;4977130;28;20046;-85
2022/04/06 01:46:54;;;;;;;41.13;15.43;;;;;;;;;;4977493;28;20471;-85
2022/04/06 01:52:14;;;;;;;33.88;14.45;;;8.90;99.90;;;;;;4976824;28;20054;-85
2022/04/06 01:54:40;;;;;;;;;;;8.80;99.90;;;;;;4977210;28;20062;-85
2022/04/06 01:57:06;;;;;;;36.63;13.77;;;;;;;;;;4993860;28;19926;-85
2022/04/06 01:59:32;;;;;;;32.75;13.82;;;;;;;;;;4994019;28;20046;-85
2022/04/06 02:01:58;;;;;;;37.20;13.52;;;;;;;;;;4994132;28;20077;-85
2022/04/06 02:04:24;;;;;;;40.90;13.63;;;;;;;;;;4976804;28;20146;-85
2022/04/06 02:06:50;;;;;;;34.80;13.70;;;;;;;;;;4976421;28;20132;-85
2022/04/06 02:09:17;;;;;;;34.83;13.10;;;;;;;;;;4994202;28;20096;-85
2022/04/06 02:11:44;;;;;;;37.28;12.98;;;8.80;99.90;;;;;;4960727;28;20549;-85
2022/04/06 02:14:10;;;;;;;32.22;12.65;;;;;;;;;;4993829;28;20058;-85
2022/04/06 02:16:37;;;;;;;33.63;12.52;;;;;;;;;;4976472;28;20051;-85
2022/04/06 02:19:03;;;;;;;28.58;12.32;;;;;;;;;;4994650;28;20105;-85
2022/04/06 02:21:29;;;;;;;31.67;12.02;;;;;;;;;;4997826;28;20054;-85
2022/04/06 02:23:55;;;;;;;34.70;11.52;;;;;;;;;;4980467;28;20061;-85
2022/04/06 02:26:21;;;;;;;31.35;11.25;;;;;;;;;;4980630;28;20055;-86
2022/04/06 02:28:47;;;;;;;35.17;10.82;;;;;;;;;;4979920;28;20054;-85
2022/04/06 02:31:13;;;;;;;28.80;10.35;;;;;;;;;;4997878;28;20046;-85
2022/04/06 02:33:39;;;;;;;31.05;11.10;;;;;;;;;;4997877;28;20069;-85
2022/04/06 02:36:05;;;;;;;31.33;10.70;;;;;;;;;;4963872;28;20054;-86
2022/04/06 02:38:31;;;;;;;33.75;11.05;;;;;;;;;;4963938;28;20063;-85
2022/04/06 02:40:57;;;;;;;30.13;10.65;;;;;;;;;;4980168;28;20060;-86
2022/04/06 02:43:23;;;;;;;28.40;10.63;;;;;;;;;;4997246;28;20502;-86
2022/04/06 02:45:49;;;;;;;27.02;9.90;;;;;;;;;;4997495;28;20101;-86
2022/04/06 02:48:18;;;;;;;28.67;9.93;;;;;;;;;;4980145;28;20469;-86
2022/04/06 02:50:44;;;;;;;36.25;10.32;;;;;;;;;;4980324;28;20449;-86
2022/04/06 02:53:10;;;;;;;32.65;10.40;;;;;;;;;;4979675;28;20050;-86
2022/04/06 02:55:36;;;;;;;36.17;10.63;;;;;;;;;;4963721;28;20072;-85
2022/04/06 02:58:02;;;;;;;34.05;10.70;;;;;;;;;;4979777;28;20050;-86
2022/04/06 03:00:30;;;;;;;39.10;11.18;;;;;;;;;;4996827;28;20097;-85
2022/04/06 03:02:56;;;;;;;31.70;11.07;;;;;;;;;;4997027;28;20054;-85
2022/04/06 03:05:22;;;;;;;29.90;10.98;;;;;;;;;;4997240;28;20417;-85
2022/04/06 03:07:48;;;;;;;31.88;11.18;;;;;;;;;;4979348;28;20055;-86
2022/04/06 03:10:14;;;;;;;34.38;11.85;;;;;;;;;;4963439;28;20065;-86
2022/04/06 03:12:40;;;;;;;33.78;12.20;;;;;;;;;;4979439;28;20054;-85
2022/04/06 03:15:06;;;;;;;32.55;11.85;;;8.80;99.90;;;;;;4979639;28;20409;-86
2022/04/06 03:17:32;;;;;;;34.22;12.65;;;;;;;;;;4979050;28;20502;-86
2022/04/06 03:19:58;;;;;;;32.45;13.18;;;;;;;;;;4996997;28;20054;-86
2022/04/06 03:22:24;;;;;;;31.23;13.82;;;;;;;;;;4997385;28;20178;-85
2022/04/06 03:24:49;;;;;;;37.30;14.60;;;8.80;99.90;;;;;;4996507;28;20078;-85
2022/04/06 03:27:15;;;;;;;37.13;14.45;;;;;;;;;;4979598;28;20058;-85
2022/04/06 03:29:41;;;;;;;38.88;14.88;;;;;;;;;;4996798;28;20137;-86
2022/04/06 03:32:08;;;;;;;39.38;15.85;;;8.90;99.90;;;;;;4996568;28;20410;-86
2022/04/06 03:34:34;;;;;;;44.63;16.05;;;;;;;;;;4979366;28;20101;-85
2022/04/06 03:37:00;;;;;;;42.22;17.17;;;;;;;;;;4996202;28;20453;-85
2022/04/06 03:39:26;;;;;;;47.88;17.30;;;;;;;;;;4979316;28;20101;-86
2022/04/06 03:41:52;;;;;;;36.92;16.52;;;;;;;;;;4978861;28;20058;-86
2022/04/06 03:44:18;;;;;;;36.47;16.50;;;;;;;;;;4996482;28;20406;-85
2022/04/06 03:46:44;;;;;;;42.85;16.80;;;;;;;;;;4978775;28;20057;-85
2022/04/06 03:49:10;;;;;;;44.47;16.98;;;;;;;;;;4979178;28;20058;-84
2022/04/06 03:51:36;;;;;;;38.83;16.88;;;;;;;;;;4996454;28;20101;-86
2022/04/06 03:54:03;;;;;;;40.70;18.13;;;;;;;;;;4996003;28;20050;-85
2022/04/06 03:56:29;;;;;;;37.20;17.20;;;;;;;;;;4978834;28;20050;-85
2022/04/06 03:58:55;;;;;;;42.60;17.77;;;;;;;;;;4962573;28;20058;-85
2022/04/06 04:01:22;;;;;;;44.10;17.02;;;;;;;;;;4995317;28;20193;-86
2022/04/06 04:03:48;;;;;;;39.97;17.42;;;;;;;;;;4995902;28;20061;-85
2022/04/06 04:06:17;;;;;;;43.30;17.52;;;;;;;;;;4995985;28;20117;-86
2022/04/06 04:08:43;;;;;;;40.35;18.00;;;;;;;;;;4978550;28;20047;-86
2022/04/06 04:11:09;;;;;;;35.63;17.40;;;;;;;;;;4979088;28;20417;-86
2022/04/06 04:13:35;;;;;;;41.47;17.58;;;;;;;;;;4978532;28;20057;-85
2022/04/06 04:16:04;;;;;;;43.92;16.88;;;;;;;;;;4995841;28;20476;-85
2022/04/06 04:18:30;;;;;;;35.58;15.73;;;;;;;;;;4978113;28;20066;-85
2022/04/06 04:21:32;;;;;;;38.78;16.30;;;;;;;;;;4996415;28;20501;-86
2022/04/06 04:23:42;;;;;;;40.50;16.25;;;;;;;;;;4978503;28;20486;-86
2022/04/06 04:26:10;;;;;;;35.38;16.08;;;;;;;;;;4961164;28;20431;-86
2022/04/06 04:28:36;;;;;;;42.88;16.00;;;;;;;;;;4995413;28;20400;-85
2022/04/06 04:31:02;;;;;;;31.95;14.48;;;;;;;;;;4978133;28;20061;-85
2022/04/06 04:33:28;;;;;;;36.20;14.73;;;;;;;;;;4961976;28;20116;-85
2022/04/06 04:35:54;;;;;;;36.92;14.50;;;;;;;;;;4978323;28;20462;-86
2022/04/06 04:38:20;;;;;;;37.13;15.00;;;;;;;;;;4995396;28;20050;-85
2022/04/06 04:40:46;;;;;;;29.88;14.15;;;9.00;99.90;;;;;;4961544;28;20536;-85
2022/04/06 04:43:12;;;;;;;32.53;14.43;;;;;;;;;;4994848;28;20404;-85
2022/04/06 04:45:39;;;;;;;33.65;13.95;;;8.80;99.90;;;;;;4961843;28;20205;-86
2022/04/06 04:48:05;;;;;;;32.13;13.40;;;8.90;99.90;;;;;;4977515;28;20054;-86
2022/04/06 04:50:31;;;;;;;31.38;13.82;;;;;;;;;;4995180;28;20400;-86
2022/04/06 04:52:57;;;;;;;33.13;13.40;;;;;;;;;;4961682;28;20074;-85
2022/04/06 04:55:23;;;;;;;34.40;13.95;;;;;;;;;;4977527;28;20070;-85
2022/04/06 04:57:49;;;;;;;31.88;13.00;;;;;;;;;;4994951;28;20436;-85
2022/04/06 05:00:15;;;;;;;30.77;12.93;;;9.40;99.90;;;;;;4994758;28;20072;-86
2022/04/06 05:02:41;;;;;;;31.08;13.15;;;;;;;;;;4994767;28;20061;-85
2022/04/06 05:05:08;;;;;;;35.47;12.80;;;8.90;99.90;;;;;;4961416;28;20050;-85
2022/04/06 05:07:37;;;;;;;30.75;13.32;;;;;;;;;;4977453;28;20121;-86
2022/04/06 05:10:10;;;;;;;30.00;12.90;;;8.70;99.90;;;;;;4977381;28;20136;-86
2022/04/06 05:12:36;;;;;;;37.50;12.50;;;;;;;;;;4977382;28;20116;-86
2022/04/06 05:15:02;;;;;;;32.30;12.75;;;;;;;;;;4994701;28;20050;-86
2022/04/06 05:17:28;;;;;;;31.30;12.38;;;;;;;;;;4960892;28;20054;-86
2022/04/06 05:19:55;;;;;;;31.10;13.02;;;;;;;;;;4977766;28;20051;-86
2022/04/06 05:22:21;;;;;;;29.17;11.93;;;;;;;;;;4947124;28;20086;-89
2022/04/06 05:24:47;;;;;;;32.80;11.68;;;;;;;;;;4980980;28;20458;-89
2022/04/06 05:27:13;;;;;;;31.98;11.63;;;;;;;;;;4979916;28;20056;-89
2022/04/06 05:29:39;;;;;;;26.35;11.25;;;;;;;;;;4961786;28;20113;-88
2022/04/06 05:32:05;;;;;;;22.75;10.30;;;;;;;;;;4996931;28;20058;-87
2022/04/06 05:34:31;;;;;;;27.77;11.35;;;;;;;;;;4976809;28;20058;-88
2022/04/06 05:36:57;;;;;;;29.83;10.60;;;;;;;;;;4960744;28;20058;-86
2022/04/06 05:39:23;;;;;;;31.30;9.68;;;;;;;;;;4977033;28;20050;-86
2022/04/06 05:41:49;;;;;;;24.27;9.77;;;;;;;;;;4994225;28;20410;-86
2022/04/06 05:44:16;;;;;;;24.77;9.60;;;;;;;;;;4977447;28;20050;-87
2022/04/06 05:46:42;;;;;;;26.63;9.63;;;;;;;;;;4978695;28;20540;-87
2022/04/06 05:49:08;;;;;;;27.48;9.75;;;;;;;;;;4963366;28;20058;-87
2022/04/06 05:51:34;;;;;;;20.63;8.23;;;;;;;;;;4988334;28;20046;-87
2022/04/06 05:54:02;;;;;;;21.33;7.63;;;;;;;;;;4997738;28;20046;-87
2022/04/06 05:56:28;;;;;;;22.95;8.32;;;;;;;;;;5000228;28;20058;-87
2022/04/06 05:58:54;;;;;;;17.85;7.55;;;;;;;;;;4960339;28;20129;-86
2022/04/06 06:01:20;;;;;;;24.48;7.57;;;;;;;;;;4990073;28;20054;-87
2022/04/06 06:03:46;;;;;;;20.27;7.60;;;;;;;;;;4976862;28;20070;-88
2022/04/06 06:06:12;;;;;;;22.60;7.28;;;;;;;;;;4976686;28;20197;-88
2022/04/06 06:08:39;;;;;;;20.60;6.57;;;;;;;;;;4961913;28;20053;-90
2022/04/06 06:11:05;;;;;;;21.85;6.85;;;;;;;;;;4961312;28;20115;-88
2022/04/06 06:13:32;;;;;;;20.33;6.63;;;;;;;;;;4979429;28;20101;-89
2022/04/06 06:16:00;;;;;;;15.07;5.43;;;;;;;;;;4981581;28;20038;-91
2022/04/06 06:18:26;;;;;;;17.10;5.63;;;;;;;;;;4980311;28;20064;-88
2022/04/06 06:20:52;;;;;;;18.38;5.60;;;;;;;;;;4976029;28;20054;-92
2022/04/06 06:23:18;;;;;;;19.70;6.50;;;;;;;;;;5000070;28;20061;-89
2022/04/06 06:25:44;;;;;;;14.48;5.00;;;;;;;;;;4977140;28;20054;-85
2022/04/06 06:28:10;;;;;;;13.95;4.88;;;;;;;;;;4979792;28;20133;-89
2022/04/06 06:30:36;;;;;;;18.08;4.80;;;;;;;;;;4977509;28;20054;-88
2022/04/06 06:33:02;;;;;;;15.95;4.78;;;;;;;;;;4961375;28;20108;-87
2022/04/06 06:35:28;;;;;;;16.05;5.28;;;;;;;;;;4995280;28;20046;-88
2022/04/06 06:37:56;;;;;;;15.10;4.60;;;9.10;99.90;;;;;;4978553;28;20054;-88
2022/04/06 06:40:24;;;;;;;13.88;4.35;;;9.00;99.90;;;;;;4962936;28;20566;-88
2022/04/06 06:42:50;;;;;;;16.98;4.88;;;;;;;;;;4994005;28;20051;-87
2022/04/06 06:45:16;;;;;;;12.63;3.90;;;;;;;;;;4961768;28;20043;-88
2022/04/06 06:47:42;;;;;;;16.38;4.60;;;;;;;;;;4963965;28;20046;-90
2022/04/06 06:50:10;;;;;;;15.95;4.25;;;9.00;99.90;;;;;;4962503;28;20047;-87
2022/04/06 06:52:36;;;;;;;11.48;3.72;;;;;;;;;;4958547;28;20050;-89
2022/04/06 06:55:03;;;;;;;12.35;3.63;;;9.00;99.90;;;;;;4992583;28;20053;-89
2022/04/06 06:57:29;;;;;;;18.52;4.30;;;;;;;;;;4958867;28;20133;-88
2022/04/06 06:59:56;;;;;;;13.15;3.75;;;;;;;;;;4961227;28;20066;-88
2022/04/06 07:02:22;;;;;;;13.95;3.97;;;;;;;;;;4993503;28;20058;-89
2022/04/06 07:04:48;;;;;;;14.65;3.70;;;;;;;;;;4976758;28;20085;-88
2022/04/06 07:07:14;;;;;;;13.63;3.90;;;;;;;;;;4982114;28;20058;-87
2022/04/06 07:09:40;;;;;;;14.77;3.92;;;;;;;;;;4984836;28;20054;-88
2022/04/06 07:12:06;;;;;;;13.32;4.32;;;;;;;;;;4997737;28;20054;-88
2022/04/06 07:14:32;;;;;;;17.55;4.13;;;;;;;;;;4980319;28;20517;-87
2022/04/06 07:16:59;;;;;;;13.52;3.75;;;;;;;;;;4980977;28;20078;-88
2022/04/06 07:19:25;;;;;;;13.55;4.22;;;;;;;;;;4998527;28;20054;-86
2022/04/06 07:21:51;;;;;;;12.73;4.10;;;;;;;;;;4981870;28;20043;-88
2022/04/06 07:24:17;;;;;;;14.73;4.20;;;;;;;;;;4980771;28;20047;-87
2022/04/06 07:26:44;;;;;;;17.27;4.13;;;;;;;;;;4980491;28;20137;-86
2022/04/06 07:29:11;;;;;;;14.85;4.05;;;;;;;;;;4996007;28;20055;-88
2022/04/06 07:31:41;;;;;;;16.60;4.25;;;9.00;99.90;;;;;;4980515;28;20058;-89
2022/04/06 07:34:07;;;;;;;13.27;4.45;;;;;;;;;;4998438;28;20092;-89
2022/04/06 07:36:33;;;;;;;20.27;4.63;;;;;;;;;;4963720;28;20051;-87
2022/04/06 07:39:03;;;;;;;16.67;4.65;;;9.00;99.90;;;;;;4963103;28;20046;-88
2022/04/06 07:41:29;;;;;;;14.57;4.70;;;;;;;;;;4979828;28;20461;-89
2022/04/06 07:43:57;;;;;;;13.75;4.80;;;9.10;99.90;;;;;;4980430;28;20054;-88
2022/04/06 07:46:23;;;;;;;17.45;5.25;;;;;;;;;;4971628;28;20062;-87
2022/04/06 07:48:49;;;;;;;13.52;5.32;;;;;;;;;;4980028;28;20129;-88
2022/04/06 07:51:15;;;;;;;13.68;5.43;;;;;;;;;;4996226;28;20057;-89
2022/04/06 07:53:41;;;;;;;17.77;6.75;;;;;;;;;;4979731;28;20189;-86
2022/04/06 07:56:08;;;;;;;21.27;6.50;;;;;;;;;;4962428;28;20042;-86
2022/04/06 07:58:34;;;;;;;21.05;6.63;;;;;;;;;;4961773;28;20517;-87
2022/04/06 08:01:02;;;;;;;19.73;6.97;;;;;;;;;;4977422;28;20090;-87
2022/04/06 08:03:28;;;;;;;18.60;7.10;;;;;;;;;;4979661;28;20398;-86
2022/04/06 08:05:56;;;;;;;16.20;6.90;;;;;;;;;;4962939;28;20113;-88
2022/04/06 08:08:22;;;;;;;16.98;6.90;;;;;;;;;;4961856;28;20058;-88
2022/04/06 08:10:48;;;;;;;16.52;7.78;;;;;;;;;;4965182;28;20057;-87
2022/04/06 08:13:14;;;;;;;19.40;7.70;;;;;;;;;;4982247;28;20402;-88
2022/04/06 08:15:40;;;;;;;20.48;7.43;;;;;;;;;;4977565;28;20086;-86
2022/04/06 08:18:06;;;;;;;21.58;8.98;;;;;;;;;;4976843;28;20622;-87
2022/04/06 08:20:32;;;;;;;20.50;8.70;;;;;;;;;;4995387;28;20046;-87
2022/04/06 08:22:59;;;;;;;22.70;9.43;;;9.20;99.90;;;;;;4961763;28;20066;-87
2022/04/06 08:25:26;;;;;;;26.13;9.45;;;;;;;;;;4977407;28;20054;-87
2022/04/06 08:27:52;;;;;;;18.27;9.95;;;;;;;;;;4977455;28;20081;-86
2022/04/06 08:30:22;;;;;;;18.80;9.48;;;;;;;;;;4986939;28;20054;-88
2022/04/06 08:32:48;;;;;;;26.00;10.38;;;;;;;;;;4994574;28;20042;-87
2022/04/06 08:35:14;;;;;;;23.17;9.65;;;;;;;;;;4977606;28;20050;-87
2022/04/06 08:37:41;;;;;;;22.90;9.68;;;;;;;;;;4977708;28;20046;-88
2022/04/06 08:40:08;;;;;;;23.55;9.10;;;9.30;99.90;;;;;;4977827;28;20146;-87
2022/04/06 08:42:34;;;;;;;23.60;10.02;;;;;;;;;;4977168;28;20160;-87
2022/04/06 08:45:01;;;;;;;21.17;8.80;;;;;;;;;;4977938;28;20461;-87
2022/04/06 08:47:31;;;;;;;23.42;9.43;;;9.40;99.90;;;;;;4977195;28;20121;-86
2022/04/06 08:49:57;;;;;;;20.73;9.15;;;;;;;;;;4994766;28;20057;-86
2022/04/06 08:52:23;;;;;;;21.38;8.77;;;;;;;;;;4977917;28;20065;-87
2022/04/06 08:54:50;;;;;;;26.60;9.35;;;;;;;;;;4994612;28;20082;-88
2022/04/06 08:57:17;;;;;;;21.15;8.30;;;9.90;99.90;;;;;;4977257;28;20065;-87
2022/04/06 08:59:43;;;;;;;18.23;7.32;;;;;;;;;;4965000;28;20050;-86
2022/04/06 09:02:11;;;;;;;24.10;8.20;;;10.10;99.90;;;;;;4976079;28;20086;-87
2022/04/06 09:04:39;;;;;;;22.15;7.90;;;10.10;99.90;;;;;;4976837;28;20113;-87
2022/04/06 09:07:09;;;;;;;18.45;7.15;;;10.10;99.90;;;;;;4977107;28;20409;-86
2022/04/06 09:09:35;;;;;;;19.45;6.55;;;;;;;;;;4977259;28;20049;-86
2022/04/06 09:12:07;;;;;;;15.45;6.03;;;10.00;99.90;;;;;;4976971;28;20082;-87
2022/04/06 09:14:36;;;;;;;15.18;5.57;;;;;;;;;;4965535;28;20043;-87
2022/04/06 09:17:06;;;;;;;16.42;6.20;;;10.00;99.90;;;;;;4960718;28;20053;-86
2022/04/06 09:19:44;;;;;;;14.45;5.90;;;9.90;99.90;;;;;;4976953;28;20050;-86
2022/04/06 09:22:10;;;;;;;19.73;5.78;;;;;;;;;;4992841;28;20081;-87
2022/04/06 09:24:37;;;;;;;16.70;5.82;;;;;;;;;;4977669;28;20062;-87
2022/04/06 09:27:04;;;;;;;13.52;5.32;;;9.90;99.90;;;;;;4961552;28;20509;-88
2022/04/06 09:29:35;;;;;;;16.95;5.18;;;;;;;;;;4995604;28;20062;-87
2022/04/06 09:32:09;;;;;;;11.18;5.22;;;9.90;99.90;;;;;;4962473;28;20086;-86
2022/04/06 09:34:35;;;;;;;13.52;5.00;;;;;;;;;;4990413;28;20037;-87
2022/04/06 09:37:22;;;;;;;14.80;5.30;;;9.80;99.90;;;;;;4997890;28;20054;-86
2022/04/06 09:39:48;;;;;;;13.57;5.05;;;;;;;;;;4965962;28;20422;-88
2022/04/06 09:42:23;;;;;;;16.52;5.05;;;9.80;99.90;;;;;;4976523;28;20455;-87
2022/04/06 09:47:42;;;;;;;13.52;4.63;;;;;;;;;;4976452;28;20096;-87
2022/04/06 09:50:08;;;;;;;13.20;4.40;;;;;;;;;;4994203;28;20055;-86
2022/04/06 09:52:37;;;;;;;13.52;4.03;;;10.00;99.90;;;;;;4976330;28;20062;-87
2022/04/06 09:55:07;;;;;;;13.85;4.47;;;9.90;99.90;;;;;;4976712;28;20060;-87
2022/04/06 09:57:45;;;;;;;14.93;4.40;;;9.90;99.90;;;;;;4976248;28;20473;-87
2022/04/06 10:00:16;;;;;;;9.63;4.80;;;9.90;99.90;;;;;;4971999;28;20137;-88
2022/04/06 10:02:44;;;;;;;11.10;4.50;;;10.00;99.90;;;;;;4974740;28;20058;-88
2022/04/06 10:05:17;;;;;;;15.73;4.82;;;9.90;99.90;;;;;;4933548;28;20059;-88
2022/04/06 10:07:43;;;;;;;12.85;4.65;;;;;;;;;;4956929;28;20046;-87
2022/04/06 10:10:11;;;;;;;11.38;4.80;;;10.00;99.90;;;;;;4941112;28;20046;-87
2022/04/06 10:12:38;;;;;;;15.27;5.20;;;;;;;;;;4944213;28;20491;-87
2022/04/06 10:15:05;;;;;;;14.30;4.95;;;9.90;99.90;;;;;;4974487;28;20082;-86
2022/04/06 10:17:35;;;;;;;14.73;5.32;;;10.00;99.90;;;;;;4940928;28;20077;-88
2022/04/06 10:20:18;;;;;;;14.02;5.15;;;10.00;99.90;;;;;;4949930;28;20614;-87
2022/04/06 10:23:07;;;;;;;15.73;5.20;;;10.00;99.90;;;;;;4936597;28;20536;-86
2022/04/06 10:26:22;;;;;;;15.55;5.30;;;10.00;99.90;;;;;;4957020;28;20502;-88
2022/04/06 10:28:51;;;;;;;14.23;5.20;;;;;;;;;;4941875;28;20086;-88
2022/04/06 10:31:24;;;;;;;14.30;5.55;;;10.10;99.90;;;;;;4957773;28;20466;-87
2022/04/06 10:34:13;;;;;;;13.50;5.68;;;10.10;99.90;;;;;;4957868;28;20058;-87
2022/04/06 10:36:41;;;;;;;16.58;5.68;;;10.10;99.90;;;;;;4974622;28;20102;-87
2022/04/06 10:39:07;;;;;;;16.50;5.40;;;;;;;;;;4957567;28;20059;-88
2022/04/06 10:41:34;;;;;;;12.02;5.65;;;10.10;99.90;;;;;;4978018;28;20043;-87
2022/04/06 10:44:00;;;;;;;15.23;5.40;;;;;;;;;;4963922;28;20043;-88
2022/04/06 10:46:40;;;;;;;15.07;5.57;;;10.20;99.90;;;;;;4949737;28;20061;-88
2022/04/06 10:49:06;;;;;;;13.63;5.40;;;;;;;;;;4981367;28;20068;-87
2022/04/06 10:51:40;;;;;;;12.48;6.10;;;10.20;99.90;;;;;;4980504;28;21600;-87
2022/04/06 10:54:12;;;;;;;13.45;6.00;;;10.20;99.90;;;;;;4946220;28;20050;-88
2022/04/06 10:57:00;;;;;;;14.68;6.50;;;10.30;99.90;;;;;;4977746;28;20135;-88
2022/04/06 10:59:29;;;;;;;15.98;6.47;;;10.20;99.90;;;;;;4945842;28;20129;-89
2022/04/06 11:02:21;;;;;;;21.13;7.03;;;10.10;99.90;;;;;;4968969;28;20055;-89
2022/04/06 11:04:53;;;;;;;14.45;6.45;;;10.10;99.90;;;;;;4973100;28;20109;-90
2022/04/06 11:10:22;;;;;;;13.55;6.63;;;;;;;;;;4976654;28;20442;-87
2022/04/06 11:12:59;;;;;;;15.75;6.85;;;10.10;99.90;;;;;;4975727;28;20054;-88
2022/04/06 11:15:37;;;;;;;13.35;7.25;;;10.00;99.90;;;;;;4961351;28;20460;-89
2022/04/06 11:18:03;;;;;;;14.73;7.03;;;;;;;;;;4977740;28;20047;-86
2022/04/06 11:20:32;;;;;;;12.00;6.78;;;10.00;99.90;;;;;;4979243;28;20046;-89
2022/04/06 11:22:58;;;;;;;19.50;7.15;;;;;;;;;;4962337;28;20082;-87
2022/04/06 11:25:33;;;;;;;14.70;7.00;;;10.10;99.90;;;;;;4962129;28;20043;-89
2022/04/06 11:28:06;;;;;;;13.43;6.95;;;10.00;99.90;;;;;;4977959;28;20058;-89
2022/04/06 11:30:34;;;;;;;14.50;7.72;;;;;;;;;;4961440;28;20059;-86
2022/04/06 11:33:01;;;;;;;15.43;7.72;;;10.00;99.90;;;;;;4979754;28;20094;-89
2022/04/06 11:35:29;;;;;;;16.58;8.57;;;9.90;99.90;;;;;;4981004;28;20462;-88
2022/04/06 11:37:55;;;;;;;19.75;8.57;;;;;;;;;;4978717;28;20517;-85
2022/04/06 11:40:23;;;;;;;15.90;8.50;;;9.90;99.90;;;;;;4976255;28;20062;-86
2022/04/06 11:42:56;;;;;;;22.08;8.75;;;9.80;99.90;;;;;;4960461;28;20433;-88
2022/04/06 11:45:23;;;;;;;18.65;9.18;;;9.80;99.90;;;;;;4965821;28;20061;-86
2022/04/06 11:47:56;;;;;;;15.88;9.07;;;9.90;99.90;;;;;;4977624;28;20053;-85
2022/04/06 11:50:34;;;;;;;19.10;8.80;;;9.90;99.90;;;;;;4977011;28;20085;-85
2022/04/06 11:53:08;;;;;;;19.10;8.80;;;10.10;99.90;;;;;;4975492;28;20047;-86
2022/04/06 11:55:47;;;;;;;15.98;8.35;;;10.10;99.90;;;;;;4973272;28;20055;-86
2022/04/06 11:58:32;;;;;;;14.48;8.57;;;10.20;99.90;;;;;;4945378;28;20079;-86
2022/04/06 12:01:05;;;;;;;18.60;8.13;;;10.20;99.90;;;;;;4976175;28;20059;-87
2022/04/06 12:03:32;;;;;;;14.55;8.07;;;10.20;99.90;;;;;;4960091;28;20055;-86
2022/04/06 12:05:58;;;;;;;15.98;7.65;;;;;;;;;;4960749;28;20417;-87
2022/04/06 12:08:25;;;;;;;11.48;8.23;;;;;;;;;;4976178;28;20050;-87
2022/04/06 12:10:58;;;;;;;14.60;8.05;;;10.40;99.90;;;;;;4978051;28;20566;-86
2022/04/06 12:13:29;;;;;;;16.00;8.85;;;10.30;99.90;;;;;;4960430;28;20051;-87
2022/04/06 12:15:55;;;;;;;12.73;8.18;;;;;;;;;;4977737;28;20050;-88
2022/04/06 12:18:23;;;;;;;13.82;8.50;;;10.50;99.90;;;;;;4975467;28;20065;-88
2022/04/06 12:20:50;;;;;;;13.90;9.18;;;10.70;99.90;;;;;;4976130;28;20058;-86
2022/04/06 12:23:18;;;;;;;15.70;8.25;;;10.80;99.90;;;;;;4976140;28;20063;-88
2022/04/06 12:25:44;;;;;;;16.25;8.43;;;;;;;;;;4976052;28;20414;-86
2022/04/06 12:28:23;;;;;;;15.30;9.52;;;10.90;99.90;;;;;;4959031;28;20130;-87
2022/04/06 12:31:07;;;;;;;10.75;8.43;;;11.00;99.90;;;;;;4976152;28;20059;-86
2022/04/06 12:33:49;;;;;;;14.70;8.93;;;11.10;99.90;;;;;;4975147;28;20050;-86
2022/04/06 12:36:27;;;;;;;12.95;8.20;;;11.10;99.90;;;;;;4974801;28;20062;-88
2022/04/06 12:39:03;;;;;;;16.50;9.10;;;11.10;99.90;;;;;;4945808;28;20083;-87
2022/04/06 12:41:34;;;;;;;17.23;8.95;;;11.10;99.90;;;;;;4961308;28;20047;-88
2022/04/06 12:44:02;;;;;;;13.48;8.55;;;11.00;99.90;;;;;;4976127;28;20051;-87
2022/04/06 12:46:46;;;;;;;12.13;8.48;;;10.90;99.90;;;;;;4974630;28;20058;-87
2022/04/06 12:49:29;;;;;;;12.73;8.30;;;10.90;99.90;;;;;;4959624;28;20047;-88
2022/04/06 12:52:18;;;;;;;14.45;8.50;;;10.80;99.90;;;;;;4968884;28;20047;-87
2022/04/06 12:54:52;;;;;;;11.02;7.80;;;10.80;99.90;;;;;;4976308;28;20050;-88
2022/04/06 12:57:30;;;;;;;10.32;8.25;;;10.80;99.90;;;;;;4975630;28;20058;-87
2022/04/06 13:00:09;;;;;;;12.35;7.97;;;10.70;99.90;;;;;;4975626;28;20142;-87
2022/04/06 13:02:47;;;;;;;12.48;8.07;;;10.70;99.90;;;;;;4973868;28;20046;-88
2022/04/06 13:05:16;;;;;;;11.60;8.10;;;10.60;99.90;;;;;;4955811;28;20050;-86
2022/04/06 13:07:43;;;;;;;13.88;8.48;;;10.60;99.90;;;;;;4959235;28;20086;-88
2022/04/06 13:10:12;;;;;;;13.77;8.73;;;10.70;99.90;;;;;;4958260;28;20073;-86
2022/04/06 13:12:40;;;;;;;12.95;8.25;;;10.60;99.90;;;;;;4975211;28;20058;-87
2022/04/06 13:15:10;;;;;;;15.07;8.30;;;10.60;99.90;;;;;;4958679;28;20078;-88
2022/04/06 13:17:37;;;;;;;13.30;7.80;;;10.50;99.90;;;;;;4975164;28;20050;-87
2022/04/06 13:20:08;;;;;;;12.90;7.80;;;10.60;99.90;;;;;;4977564;28;20158;-87
2022/04/06 13:22:34;;;;;;;12.93;8.15;;;10.50;99.90;;;;;;4977679;28;20055;-87
2022/04/06 13:25:01;;;;;;;12.60;7.55;;;;;;;;;;4981968;28;20077;-86
2022/04/06 13:27:27;;;;;;;9.15;7.57;;;;;;;;;;4995287;28;20119;-88
2022/04/06 13:29:53;;;;;;;18.17;7.85;;;;;;;;;;4987622;28;20054;-87
2022/04/06 13:32:19;;;;;;;13.43;8.32;;;;;;;;;;4974823;28;20754;-87
2022/04/06 13:34:45;;;;;;;12.27;7.97;;;;;;;;;;4974671;28;20053;-87
2022/04/06 13:37:11;;;;;;;12.13;8.50;;;;;;;;;;4958756;28;20506;-90
2022/04/06 13:39:37;;;;;;;12.23;8.52;;;;;;;;;;4973902;28;20414;-87
2022/04/06 13:42:05;;;;;;;11.10;8.32;;;;;;;;;;4974045;28;20138;-87
2022/04/06 13:44:33;;;;;;;11.68;8.75;;;10.40;99.90;;;;;;4974275;28;20063;-87
2022/04/06 13:46:59;;;;;;;12.35;9.25;;;10.40;99.90;;;;;;4957700;28;20505;-87
2022/04/06 13:49:26;;;;;;;12.07;8.80;;;;;;;;;;4958859;28;20061;-88
2022/04/06 13:51:54;;;;;;;12.18;9.68;;;10.40;99.90;;;;;;4974798;28;20054;-87
2022/04/06 13:54:21;;;;;;;12.73;9.40;;;10.50;99.90;;;;;;4958613;28;20061;-87
2022/04/06 13:56:47;;;;;;;17.27;10.30;;;;;;;;;;4973834;28;20089;-87
2022/04/06 13:59:14;;;;;;;13.32;9.82;;;10.40;99.90;;;;;;4960402;28;20402;-86